sensor_id;sensor_type;location;lat;lon;timestamp;P1;durP1;ratioP1;P2;durP2;ratioP2
18206;SDS011;9229;52.354;20.886;2023-07-20T00:00:35;6.68;;;3.83;;
18206;SDS011;9229;52.354;20.886;2023-07-20T00:05:37;7.07;;;3.58;;
18206;SDS011;9229;52.354;20.886;2023-07-20T00:10:41;4.38;;;3.97;;
18206;SDS011;9229;52.354;20.886;2023-07-20T00:15:43;3.92;;;3.60;;
18206;SDS011;9229;52.354;20.886;2023-07-20T00:20:45;3.70;;;3.40;;
18206;SDS011;9229;52.354;20.886;2023-07-20T00:25:48;5.18;;;4.10;;
18206;SDS011;9229;52.354;20.886;2023-07-20T00:30:50;3.90;;;3.65;;
18206;SDS011;9229;52.354;20.886;2023-07-20T00:35:52;5.28;;;3.53;;
18206;SDS011;9229;52.354;20.886;2023-07-20T00:40:55;4.28;;;3.63;;
18206;SDS011;9229;52.354;20.886;2023-07-20T00:45:57;7.32;;;4.53;;
18206;SDS011;9229;52.354;20.886;2023-07-20T00:50:59;11.77;;;4.53;;
18206;SDS011;9229;52.354;20.886;2023-07-20T00:56:04;4.75;;;4.25;;
18206;SDS011;9229;52.354;20.886;2023-07-20T01:01:09;5.45;;;4.38;;
18206;SDS011;9229;52.354;20.886;2023-07-20T01:06:14;4.05;;;3.72;;
18206;SDS011;9229;52.354;20.886;2023-07-20T01:11:24;5.10;;;4.18;;
18206;SDS011;9229;52.354;20.886;2023-07-20T01:16:32;4.57;;;4.28;;
18206;SDS011;9229;52.354;20.886;2023-07-20T01:21:37;5.00;;;4.50;;
18206;SDS011;9229;52.354;20.886;2023-07-20T01:27:05;6.22;;;4.72;;
18206;SDS011;9229;52.354;20.886;2023-07-20T01:32:21;4.97;;;4.47;;
18206;SDS011;9229;52.354;20.886;2023-07-20T01:37:26;5.88;;;4.30;;
18206;SDS011;9229;52.354;20.886;2023-07-20T01:42:29;4.95;;;4.18;;
18206;SDS011;9229;52.354;20.886;2023-07-20T01:47:33;5.45;;;4.13;;
18206;SDS011;9229;52.354;20.886;2023-07-20T01:52:35;4.32;;;3.90;;
18206;SDS011;9229;52.354;20.886;2023-07-20T01:57:37;4.10;;;3.70;;
18206;SDS011;9229;52.354;20.886;2023-07-20T02:02:41;6.38;;;3.97;;
18206;SDS011;9229;52.354;20.886;2023-07-20T02:07:44;4.30;;;3.90;;
18206;SDS011;9229;52.354;20.886;2023-07-20T02:12:46;4.35;;;4.03;;
18206;SDS011;9229;52.354;20.886;2023-07-20T02:17:49;5.07;;;4.68;;
18206;SDS011;9229;52.354;20.886;2023-07-20T02:22:51;5.32;;;4.68;;
18206;SDS011;9229;52.354;20.886;2023-07-20T02:27:56;5.13;;;4.60;;
18206;SDS011;9229;52.354;20.886;2023-07-20T02:32:59;4.60;;;4.20;;
18206;SDS011;9229;52.354;20.886;2023-07-20T02:38:01;6.72;;;4.63;;
18206;SDS011;9229;52.354;20.886;2023-07-20T02:43:04;5.75;;;4.50;;
18206;SDS011;9229;52.354;20.886;2023-07-20T02:48:07;6.28;;;4.28;;
18206;SDS011;9229;52.354;20.886;2023-07-20T02:53:09;5.25;;;4.82;;
18206;SDS011;9229;52.354;20.886;2023-07-20T02:58:12;11.48;;;5.00;;
18206;SDS011;9229;52.354;20.886;2023-07-20T03:03:15;6.47;;;5.28;;
18206;SDS011;9229;52.354;20.886;2023-07-20T03:08:17;5.82;;;5.00;;
18206;SDS011;9229;52.354;20.886;2023-07-20T03:13:19;5.43;;;4.82;;
18206;SDS011;9229;52.354;20.886;2023-07-20T03:18:22;8.15;;;5.30;;
18206;SDS011;9229;52.354;20.886;2023-07-20T03:23:24;6.38;;;4.90;;
18206;SDS011;9229;52.354;20.886;2023-07-20T03:28:27;11.18;;;5.30;;
18206;SDS011;9229;52.354;20.886;2023-07-20T03:33:30;5.32;;;4.82;;
18206;SDS011;9229;52.354;20.886;2023-07-20T03:38:34;6.25;;;5.03;;
18206;SDS011;9229;52.354;20.886;2023-07-20T03:43:35;6.72;;;6.15;;
18206;SDS011;9229;52.354;20.886;2023-07-20T03:48:39;8.48;;;5.82;;
18206;SDS011;9229;52.354;20.886;2023-07-20T03:53:41;7.50;;;5.50;;
18206;SDS011;9229;52.354;20.886;2023-07-20T03:58:42;5.85;;;5.35;;
18206;SDS011;9229;52.354;20.886;2023-07-20T04:03:47;9.48;;;5.65;;
18206;SDS011;9229;52.354;20.886;2023-07-20T04:08:49;5.13;;;4.70;;
18206;SDS011;9229;52.354;20.886;2023-07-20T04:13:50;6.57;;;6.05;;
18206;SDS011;9229;52.354;20.886;2023-07-20T04:18:55;8.00;;;5.53;;
18206;SDS011;9229;52.354;20.886;2023-07-20T04:23:58;5.68;;;5.18;;
18206;SDS011;9229;52.354;20.886;2023-07-20T04:28:59;7.47;;;5.38;;
18206;SDS011;9229;52.354;20.886;2023-07-20T04:34:10;5.95;;;5.18;;
18206;SDS011;9229;52.354;20.886;2023-07-20T04:39:13;5.40;;;5.00;;
18206;SDS011;9229;52.354;20.886;2023-07-20T04:44:17;11.48;;;6.43;;
18206;SDS011;9229;52.354;20.886;2023-07-20T04:49:20;5.75;;;5.25;;
18206;SDS011;9229;52.354;20.886;2023-07-20T04:54:23;6.93;;;5.43;;
18206;SDS011;9229;52.354;20.886;2023-07-20T04:59:27;6.68;;;6.20;;
18206;SDS011;9229;52.354;20.886;2023-07-20T05:04:31;13.68;;;6.88;;
18206;SDS011;9229;52.354;20.886;2023-07-20T05:09:33;7.60;;;5.95;;
18206;SDS011;9229;52.354;20.886;2023-07-20T05:14:35;8.60;;;6.45;;
18206;SDS011;9229;52.354;20.886;2023-07-20T05:19:39;7.00;;;6.32;;
18206;SDS011;9229;52.354;20.886;2023-07-20T05:24:41;8.25;;;6.78;;
18206;SDS011;9229;52.354;20.886;2023-07-20T05:29:44;9.07;;;6.65;;
18206;SDS011;9229;52.354;20.886;2023-07-20T05:34:47;9.63;;;6.82;;
18206;SDS011;9229;52.354;20.886;2023-07-20T05:39:52;7.70;;;7.03;;
18206;SDS011;9229;52.354;20.886;2023-07-20T05:44:54;8.40;;;7.30;;
18206;SDS011;9229;52.354;20.886;2023-07-20T05:49:58;7.40;;;6.57;;
18206;SDS011;9229;52.354;20.886;2023-07-20T05:55:00;9.20;;;7.28;;
18206;SDS011;9229;52.354;20.886;2023-07-20T06:00:03;10.93;;;6.70;;
18206;SDS011;9229;52.354;20.886;2023-07-20T06:05:14;11.90;;;7.13;;
18206;SDS011;9229;52.354;20.886;2023-07-20T06:10:16;8.27;;;6.85;;
18206;SDS011;9229;52.354;20.886;2023-07-20T06:15:25;13.73;;;6.43;;
18206;SDS011;9229;52.354;20.886;2023-07-20T06:20:29;7.10;;;6.13;;
18206;SDS011;9229;52.354;20.886;2023-07-20T06:25:31;7.25;;;6.55;;
18206;SDS011;9229;52.354;20.886;2023-07-20T06:30:33;8.68;;;6.35;;
18206;SDS011;9229;52.354;20.886;2023-07-20T06:35:36;11.40;;;6.68;;
18206;SDS011;9229;52.354;20.886;2023-07-20T06:40:38;6.75;;;6.15;;
18206;SDS011;9229;52.354;20.886;2023-07-20T06:45:40;9.32;;;7.03;;
18206;SDS011;9229;52.354;20.886;2023-07-20T06:50:44;8.95;;;6.22;;
18206;SDS011;9229;52.354;20.886;2023-07-20T06:55:46;5.90;;;5.38;;
18206;SDS011;9229;52.354;20.886;2023-07-20T07:00:48;6.70;;;6.03;;
18206;SDS011;9229;52.354;20.886;2023-07-20T07:05:54;7.53;;;5.68;;
18206;SDS011;9229;52.354;20.886;2023-07-20T07:10:56;7.15;;;6.55;;
18206;SDS011;9229;52.354;20.886;2023-07-20T07:15:58;8.90;;;6.03;;
18206;SDS011;9229;52.354;20.886;2023-07-20T07:21:02;6.82;;;6.22;;
18206;SDS011;9229;52.354;20.886;2023-07-20T07:26:04;7.68;;;6.45;;
18206;SDS011;9229;52.354;20.886;2023-07-20T07:31:06;8.30;;;6.35;;
18206;SDS011;9229;52.354;20.886;2023-07-20T07:36:09;10.55;;;6.47;;
18206;SDS011;9229;52.354;20.886;2023-07-20T07:41:11;7.75;;;6.57;;
18206;SDS011;9229;52.354;20.886;2023-07-20T07:46:13;7.28;;;6.68;;
18206;SDS011;9229;52.354;20.886;2023-07-20T07:51:17;7.18;;;6.57;;
18206;SDS011;9229;52.354;20.886;2023-07-20T07:56:19;8.32;;;6.78;;
18206;SDS011;9229;52.354;20.886;2023-07-20T08:01:22;7.38;;;6.75;;
18206;SDS011;9229;52.354;20.886;2023-07-20T08:06:26;7.95;;;6.60;;
18206;SDS011;9229;52.354;20.886;2023-07-20T08:11:30;10.65;;;7.57;;
18206;SDS011;9229;52.354;20.886;2023-07-20T08:16:33;7.35;;;6.03;;
18206;SDS011;9229;52.354;20.886;2023-07-20T08:21:37;6.30;;;5.55;;
18206;SDS011;9229;52.354;20.886;2023-07-20T08:26:38;6.20;;;5.60;;
18206;SDS011;9229;52.354;20.886;2023-07-20T08:31:41;7.57;;;5.70;;
18206;SDS011;9229;52.354;20.886;2023-07-20T08:36:44;10.75;;;3.67;;
18206;SDS011;9229;52.354;20.886;2023-07-20T08:41:46;4.15;;;3.90;;
18206;SDS011;9229;52.354;20.886;2023-07-20T08:46:48;3.88;;;3.63;;
18206;SDS011;9229;52.354;20.886;2023-07-20T08:51:52;3.80;;;3.60;;
18206;SDS011;9229;52.354;20.886;2023-07-20T08:56:54;3.80;;;3.55;;
18206;SDS011;9229;52.354;20.886;2023-07-20T09:01:58;3.95;;;3.47;;
18206;SDS011;9229;52.354;20.886;2023-07-20T09:07:02;4.20;;;3.40;;
18206;SDS011;9229;52.354;20.886;2023-07-20T09:12:04;3.30;;;3.00;;
18206;SDS011;9229;52.354;20.886;2023-07-20T09:17:14;2.97;;;2.55;;
18206;SDS011;9229;52.354;20.886;2023-07-20T09:22:18;3.25;;;3.05;;
18206;SDS011;9229;52.354;20.886;2023-07-20T09:27:19;3.15;;;2.95;;
18206;SDS011;9229;52.354;20.886;2023-07-20T09:32:21;3.00;;;2.53;;
18206;SDS011;9229;52.354;20.886;2023-07-20T09:37:25;2.90;;;2.70;;
18206;SDS011;9229;52.354;20.886;2023-07-20T09:42:27;2.88;;;2.67;;
18206;SDS011;9229;52.354;20.886;2023-07-20T09:47:29;4.10;;;2.80;;
18206;SDS011;9229;52.354;20.886;2023-07-20T09:52:34;2.40;;;2.20;;
18206;SDS011;9229;52.354;20.886;2023-07-20T09:57:37;4.13;;;3.10;;
18206;SDS011;9229;52.354;20.886;2023-07-20T10:02:41;3.15;;;2.95;;
18206;SDS011;9229;52.354;20.886;2023-07-20T10:07:46;2.95;;;2.85;;
18206;SDS011;9229;52.354;20.886;2023-07-20T10:12:49;2.90;;;2.78;;
18206;SDS011;9229;52.354;20.886;2023-07-20T10:17:59;4.38;;;3.10;;
18206;SDS011;9229;52.354;20.886;2023-07-20T10:23:06;2.58;;;2.47;;
18206;SDS011;9229;52.354;20.886;2023-07-20T10:28:09;3.40;;;3.00;;
18206;SDS011;9229;52.354;20.886;2023-07-20T10:33:11;2.97;;;2.65;;
18206;SDS011;9229;52.354;20.886;2023-07-20T10:38:15;2.47;;;2.38;;
18206;SDS011;9229;52.354;20.886;2023-07-20T10:43:17;4.13;;;2.40;;
18206;SDS011;9229;52.354;20.886;2023-07-20T10:48:21;2.53;;;2.42;;
18206;SDS011;9229;52.354;20.886;2023-07-20T10:53:26;3.28;;;2.10;;
18206;SDS011;9229;52.354;20.886;2023-07-20T10:58:28;2.10;;;2.10;;
18206;SDS011;9229;52.354;20.886;2023-07-20T11:03:30;2.17;;;2.08;;
18206;SDS011;9229;52.354;20.886;2023-07-20T11:08:41;2.72;;;2.00;;
18206;SDS011;9229;52.354;20.886;2023-07-20T11:13:53;2.33;;;2.13;;
18206;SDS011;9229;52.354;20.886;2023-07-20T11:18:55;2.20;;;1.98;;
18206;SDS011;9229;52.354;20.886;2023-07-20T11:24:02;2.60;;;2.40;;
18206;SDS011;9229;52.354;20.886;2023-07-20T11:29:04;2.60;;;2.50;;
18206;SDS011;9229;52.354;20.886;2023-07-20T11:34:07;2.83;;;2.72;;
18206;SDS011;9229;52.354;20.886;2023-07-20T11:39:12;2.83;;;2.63;;
18206;SDS011;9229;52.354;20.886;2023-07-20T11:44:15;2.47;;;2.35;;
18206;SDS011;9229;52.354;20.886;2023-07-20T11:49:18;2.17;;;2.17;;
18206;SDS011;9229;52.354;20.886;2023-07-20T11:54:21;2.55;;;2.45;;
18206;SDS011;9229;52.354;20.886;2023-07-20T11:59:24;2.60;;;2.45;;
18206;SDS011;9229;52.354;20.886;2023-07-20T12:04:26;2.50;;;2.40;;
18206;SDS011;9229;52.354;20.886;2023-07-20T12:09:29;2.40;;;2.30;;
18206;SDS011;9229;52.354;20.886;2023-07-20T12:14:31;2.47;;;2.28;;
18206;SDS011;9229;52.354;20.886;2023-07-20T12:19:37;2.45;;;2.35;;
18206;SDS011;9229;52.354;20.886;2023-07-20T12:24:41;1.90;;;1.90;;
18206;SDS011;9229;52.354;20.886;2023-07-20T12:29:43;2.55;;;2.22;;
18206;SDS011;9229;52.354;20.886;2023-07-20T12:34:45;2.70;;;2.33;;
18206;SDS011;9229;52.354;20.886;2023-07-20T12:39:48;2.50;;;2.40;;
18206;SDS011;9229;52.354;20.886;2023-07-20T12:44:50;2.22;;;2.10;;
18206;SDS011;9229;52.354;20.886;2023-07-20T12:49:52;3.05;;;2.80;;
18206;SDS011;9229;52.354;20.886;2023-07-20T12:54:55;2.50;;;2.40;;
18206;SDS011;9229;52.354;20.886;2023-07-20T12:59:58;3.38;;;2.70;;
18206;SDS011;9229;52.354;20.886;2023-07-20T13:05:00;2.65;;;2.55;;
18206;SDS011;9229;52.354;20.886;2023-07-20T13:10:03;2.90;;;2.70;;
18206;SDS011;9229;52.354;20.886;2023-07-20T13:15:07;2.50;;;2.40;;
18206;SDS011;9229;52.354;20.886;2023-07-20T13:20:10;2.80;;;2.13;;
18206;SDS011;9229;52.354;20.886;2023-07-20T13:25:15;2.30;;;2.13;;
18206;SDS011;9229;52.354;20.886;2023-07-20T13:30:17;2.33;;;2.22;;
18206;SDS011;9229;52.354;20.886;2023-07-20T13:35:19;3.70;;;2.28;;
18206;SDS011;9229;52.354;20.886;2023-07-20T13:40:22;2.22;;;2.22;;
18206;SDS011;9229;52.354;20.886;2023-07-20T13:45:24;2.90;;;2.70;;
18206;SDS011;9229;52.354;20.886;2023-07-20T13:50:26;3.20;;;3.00;;
18206;SDS011;9229;52.354;20.886;2023-07-20T13:55:30;2.97;;;2.88;;
18206;SDS011;9229;52.354;20.886;2023-07-20T14:00:34;3.10;;;3.00;;
18206;SDS011;9229;52.354;20.886;2023-07-20T14:05:35;5.10;;;3.15;;
18206;SDS011;9229;52.354;20.886;2023-07-20T14:10:39;3.50;;;3.30;;
18206;SDS011;9229;52.354;20.886;2023-07-20T14:15:41;3.85;;;3.28;;
18206;SDS011;9229;52.354;20.886;2023-07-20T14:20:44;4.00;;;3.70;;
18206;SDS011;9229;52.354;20.886;2023-07-20T14:25:48;3.28;;;3.08;;
18206;SDS011;9229;52.354;20.886;2023-07-20T14:30:50;2.85;;;2.75;;
18206;SDS011;9229;52.354;20.886;2023-07-20T14:35:52;7.60;;;4.15;;
18206;SDS011;9229;52.354;20.886;2023-07-20T14:40:55;3.53;;;3.33;;
18206;SDS011;9229;52.354;20.886;2023-07-20T14:45:57;1.80;;;1.67;;
18206;SDS011;9229;52.354;20.886;2023-07-20T14:50:59;1.15;;;1.15;;
18206;SDS011;9229;52.354;20.886;2023-07-20T14:56:03;1.23;;;1.23;;
18206;SDS011;9229;52.354;20.886;2023-07-20T15:01:05;1.67;;;1.58;;
18206;SDS011;9229;52.354;20.886;2023-07-20T15:06:10;1.10;;;1.10;;
18206;SDS011;9229;52.354;20.886;2023-07-20T15:11:13;1.00;;;1.00;;
18206;SDS011;9229;52.354;20.886;2023-07-20T15:16:15;1.30;;;1.30;;
18206;SDS011;9229;52.354;20.886;2023-07-20T15:21:17;1.17;;;1.08;;
18206;SDS011;9229;52.354;20.886;2023-07-20T15:26:20;0.90;;;0.90;;
18206;SDS011;9229;52.354;20.886;2023-07-20T15:31:22;1.20;;;1.20;;
18206;SDS011;9229;52.354;20.886;2023-07-20T15:36:24;6.15;;;1.10;;
18206;SDS011;9229;52.354;20.886;2023-07-20T15:41:28;1.20;;;1.20;;
18206;SDS011;9229;52.354;20.886;2023-07-20T15:51:50;1.85;;;1.17;;
18206;SDS011;9229;52.354;20.886;2023-07-20T15:56:56;1.23;;;1.20;;
18206;SDS011;9229;52.354;20.886;2023-07-20T16:01:58;2.30;;;1.83;;
18206;SDS011;9229;52.354;20.886;2023-07-20T16:07:00;4.68;;;1.90;;
18206;SDS011;9229;52.354;20.886;2023-07-20T16:12:05;7.55;;;1.95;;
18206;SDS011;9229;52.354;20.886;2023-07-20T16:17:07;2.72;;;2.08;;
18206;SDS011;9229;52.354;20.886;2023-07-20T16:22:09;2.38;;;1.95;;
18206;SDS011;9229;52.354;20.886;2023-07-20T16:27:13;2.30;;;2.05;;
18206;SDS011;9229;52.354;20.886;2023-07-20T16:32:15;2.10;;;2.00;;
18206;SDS011;9229;52.354;20.886;2023-07-20T16:37:17;2.38;;;2.17;;
18206;SDS011;9229;52.354;20.886;2023-07-20T16:42:20;2.47;;;2.10;;
18206;SDS011;9229;52.354;20.886;2023-07-20T16:47:22;2.67;;;2.45;;
18206;SDS011;9229;52.354;20.886;2023-07-20T16:52:25;2.58;;;1.90;;
18206;SDS011;9229;52.354;20.886;2023-07-20T16:57:28;2.67;;;1.92;;
18206;SDS011;9229;52.354;20.886;2023-07-20T17:02:30;2.40;;;2.20;;
18206;SDS011;9229;52.354;20.886;2023-07-20T17:07:32;2.67;;;2.53;;
18206;SDS011;9229;52.354;20.886;2023-07-20T17:12:36;2.50;;;2.30;;
18206;SDS011;9229;52.354;20.886;2023-07-20T17:17:39;3.95;;;2.47;;
18206;SDS011;9229;52.354;20.886;2023-07-20T17:22:41;2.45;;;2.25;;
18206;SDS011;9229;52.354;20.886;2023-07-20T17:27:45;2.38;;;2.28;;
18206;SDS011;9229;52.354;20.886;2023-07-20T17:32:47;2.00;;;1.90;;
18206;SDS011;9229;52.354;20.886;2023-07-20T17:37:51;2.00;;;1.90;;
18206;SDS011;9229;52.354;20.886;2023-07-20T17:42:54;2.92;;;1.90;;
18206;SDS011;9229;52.354;20.886;2023-07-20T17:47:56;2.50;;;2.40;;
18206;SDS011;9229;52.354;20.886;2023-07-20T17:52:58;3.75;;;2.20;;
18206;SDS011;9229;52.354;20.886;2023-07-20T17:58:03;2.67;;;2.58;;
18206;SDS011;9229;52.354;20.886;2023-07-20T18:03:05;2.95;;;2.80;;
18206;SDS011;9229;52.354;20.886;2023-07-20T18:08:07;2.90;;;2.70;;
18206;SDS011;9229;52.354;20.886;2023-07-20T18:13:12;3.65;;;3.30;;
18206;SDS011;9229;52.354;20.886;2023-07-20T18:18:14;5.10;;;3.00;;
18206;SDS011;9229;52.354;20.886;2023-07-20T18:23:16;7.15;;;3.15;;
18206;SDS011;9229;52.354;20.886;2023-07-20T18:28:20;3.70;;;3.38;;
18206;SDS011;9229;52.354;20.886;2023-07-20T18:33:22;4.03;;;3.60;;
18206;SDS011;9229;52.354;20.886;2023-07-20T18:38:24;3.65;;;3.35;;
18206;SDS011;9229;52.354;20.886;2023-07-20T18:43:29;3.40;;;3.20;;
18206;SDS011;9229;52.354;20.886;2023-07-20T18:48:31;3.85;;;3.65;;
18206;SDS011;9229;52.354;20.886;2023-07-20T18:53:33;3.85;;;3.55;;
18206;SDS011;9229;52.354;20.886;2023-07-20T18:58:36;3.63;;;3.33;;
18206;SDS011;9229;52.354;20.886;2023-07-20T19:03:39;3.60;;;3.30;;
18206;SDS011;9229;52.354;20.886;2023-07-20T19:08:41;3.42;;;3.13;;
18206;SDS011;9229;52.354;20.886;2023-07-20T19:13:44;3.50;;;3.30;;
18206;SDS011;9229;52.354;20.886;2023-07-20T19:18:47;3.88;;;3.45;;
18206;SDS011;9229;52.354;20.886;2023-07-20T19:23:49;5.63;;;3.80;;
18206;SDS011;9229;52.354;20.886;2023-07-20T19:28:53;4.28;;;3.63;;
18206;SDS011;9229;52.354;20.886;2023-07-20T19:33:55;4.10;;;3.80;;
18206;SDS011;9229;52.354;20.886;2023-07-20T19:38:57;5.10;;;3.90;;
18206;SDS011;9229;52.354;20.886;2023-07-20T19:44:01;4.35;;;3.20;;
18206;SDS011;9229;52.354;20.886;2023-07-20T19:49:02;3.90;;;3.65;;
18206;SDS011;9229;52.354;20.886;2023-07-20T19:54:04;5.28;;;3.60;;
18206;SDS011;9229;52.354;20.886;2023-07-20T19:59:08;4.20;;;3.90;;
18206;SDS011;9229;52.354;20.886;2023-07-20T20:04:12;4.10;;;3.90;;
18206;SDS011;9229;52.354;20.886;2023-07-20T20:09:18;4.60;;;4.28;;
18206;SDS011;9229;52.354;20.886;2023-07-20T20:14:22;4.30;;;4.00;;
18206;SDS011;9229;52.354;20.886;2023-07-20T20:19:24;5.53;;;3.85;;
18206;SDS011;9229;52.354;20.886;2023-07-20T20:24:26;3.53;;;3.33;;
18206;SDS011;9229;52.354;20.886;2023-07-20T20:29:29;7.05;;;3.85;;
18206;SDS011;9229;52.354;20.886;2023-07-20T20:34:31;3.90;;;3.70;;
18206;SDS011;9229;52.354;20.886;2023-07-20T20:39:33;3.75;;;3.50;;
18206;SDS011;9229;52.354;20.886;2023-07-20T20:44:37;4.05;;;3.78;;
18206;SDS011;9229;52.354;20.886;2023-07-20T20:49:42;4.05;;;3.65;;
18206;SDS011;9229;52.354;20.886;2023-07-20T20:54:46;3.92;;;3.60;;
18206;SDS011;9229;52.354;20.886;2023-07-20T20:59:52;7.35;;;5.05;;
18206;SDS011;9229;52.354;20.886;2023-07-20T21:04:53;5.03;;;4.53;;
18206;SDS011;9229;52.354;20.886;2023-07-20T21:09:56;4.97;;;4.63;;
18206;SDS011;9229;52.354;20.886;2023-07-20T21:14:59;7.68;;;5.80;;
18206;SDS011;9229;52.354;20.886;2023-07-20T21:20:05;6.53;;;4.97;;
18206;SDS011;9229;52.354;20.886;2023-07-20T21:25:08;5.60;;;5.13;;
18206;SDS011;9229;52.354;20.886;2023-07-20T21:30:12;6.13;;;4.85;;
18206;SDS011;9229;52.354;20.886;2023-07-20T21:35:14;5.60;;;5.20;;
18206;SDS011;9229;52.354;20.886;2023-07-20T21:40:17;4.97;;;4.57;;
18206;SDS011;9229;52.354;20.886;2023-07-20T21:45:20;4.72;;;4.40;;
18206;SDS011;9229;52.354;20.886;2023-07-20T21:50:23;5.78;;;4.72;;
18206;SDS011;9229;52.354;20.886;2023-07-20T21:55:25;5.20;;;4.70;;
18206;SDS011;9229;52.354;20.886;2023-07-20T22:00:28;7.75;;;4.90;;
18206;SDS011;9229;52.354;20.886;2023-07-20T22:05:30;5.38;;;5.00;;
18206;SDS011;9229;52.354;20.886;2023-07-20T22:10:32;5.45;;;4.95;;
18206;SDS011;9229;52.354;20.886;2023-07-20T22:15:35;5.60;;;5.15;;
18206;SDS011;9229;52.354;20.886;2023-07-20T22:20:37;5.50;;;5.10;;
18206;SDS011;9229;52.354;20.886;2023-07-20T22:25:39;5.85;;;5.40;;
18206;SDS011;9229;52.354;20.886;2023-07-20T22:30:43;8.32;;;5.47;;
18206;SDS011;9229;52.354;20.886;2023-07-20T22:35:48;10.05;;;5.55;;
18206;SDS011;9229;52.354;20.886;2023-07-20T22:40:50;8.38;;;5.00;;
18206;SDS011;9229;52.354;20.886;2023-07-20T22:45:53;6.43;;;5.15;;
18206;SDS011;9229;52.354;20.886;2023-07-20T22:50:55;5.32;;;4.82;;
18206;SDS011;9229;52.354;20.886;2023-07-20T22:55:58;5.30;;;4.90;;
18206;SDS011;9229;52.354;20.886;2023-07-20T23:01:03;5.05;;;4.55;;
18206;SDS011;9229;52.354;20.886;2023-07-20T23:06:10;5.50;;;4.93;;
18206;SDS011;9229;52.354;20.886;2023-07-20T23:11:12;5.80;;;5.32;;
18206;SDS011;9229;52.354;20.886;2023-07-20T23:16:15;7.13;;;5.28;;
18206;SDS011;9229;52.354;20.886;2023-07-20T23:21:17;6.68;;;5.65;;
18206;SDS011;9229;52.354;20.886;2023-07-20T23:26:19;6.53;;;5.43;;
18206;SDS011;9229;52.354;20.886;2023-07-20T23:31:22;6.28;;;5.68;;
18206;SDS011;9229;52.354;20.886;2023-07-20T23:36:25;4.72;;;4.30;;
18206;SDS011;9229;52.354;20.886;2023-07-20T23:41:27;5.68;;;5.00;;
18206;SDS011;9229;52.354;20.886;2023-07-20T23:46:30;7.72;;;5.20;;
18206;SDS011;9229;52.354;20.886;2023-07-20T23:51:33;6.25;;;4.55;;
18206;SDS011;9229;52.354;20.886;2023-07-20T23:56:35;6.40;;;5.80;;
